sensor_id;sensor_type;location;lat;lon;timestamp;temperature;humidity
49531;DHT22;38889;30.622;104.088;2022-07-10T00:00:26;30.70;45.10
49531;DHT22;38889;30.622;104.088;2022-07-10T00:02:53;30.60;44.80
49531;DHT22;38889;30.622;104.088;2022-07-10T00:05:21;30.60;44.60
49531;DHT22;38889;30.622;104.088;2022-07-10T00:07:50;30.60;44.40
49531;DHT22;38889;30.622;104.088;2022-07-10T00:10:18;30.60;44.60
49531;DHT22;38889;30.622;104.088;2022-07-10T00:12:47;30.60;45.10
49531;DHT22;38889;30.622;104.088;2022-07-10T00:15:15;30.70;45.70
49531;DHT22;38889;30.622;104.088;2022-07-10T00:18:00;30.70;46.30
49531;DHT22;38889;30.622;104.088;2022-07-10T00:20:28;30.80;47.00
49531;DHT22;38889;30.622;104.088;2022-07-10T00:22:55;30.90;49.90
49531;DHT22;38889;30.622;104.088;2022-07-10T00:25:23;30.90;52.60
49531;DHT22;38889;30.622;104.088;2022-07-10T00:27:51;31.00;54.10
49531;DHT22;38889;30.622;104.088;2022-07-10T00:30:18;31.00;53.60
49531;DHT22;38889;30.622;104.088;2022-07-10T00:32:46;31.10;53.60
49531;DHT22;38889;30.622;104.088;2022-07-10T00:35:13;31.10;54.40
49531;DHT22;38889;30.622;104.088;2022-07-10T00:37:40;31.10;55.70
49531;DHT22;38889;30.622;104.088;2022-07-10T00:40:08;31.20;56.40
49531;DHT22;38889;30.622;104.088;2022-07-10T00:42:53;31.20;56.90
49531;DHT22;38889;30.622;104.088;2022-07-10T00:45:21;31.20;57.30
49531;DHT22;38889;30.622;104.088;2022-07-10T00:50:35;31.30;57.90
49531;DHT22;38889;30.622;104.088;2022-07-10T00:53:05;31.30;57.80
49531;DHT22;38889;30.622;104.088;2022-07-10T00:55:34;31.30;58.10
49531;DHT22;38889;30.622;104.088;2022-07-10T00:58:04;31.30;58.30
49531;DHT22;38889;30.622;104.088;2022-07-10T01:00:32;31.30;58.30
49531;DHT22;38889;30.622;104.088;2022-07-10T01:03:00;31.30;58.60
49531;DHT22;38889;30.622;104.088;2022-07-10T01:05:28;31.30;58.60
49531;DHT22;38889;30.622;104.088;2022-07-10T01:07:58;31.30;58.90
49531;DHT22;38889;30.622;104.088;2022-07-10T01:10:25;31.30;59.00
49531;DHT22;38889;30.622;104.088;2022-07-10T01:12:53;31.30;59.10
49531;DHT22;38889;30.622;104.088;2022-07-10T01:15:21;31.30;58.80
49531;DHT22;38889;30.622;104.088;2022-07-10T01:17:48;31.40;58.90
49531;DHT22;38889;30.622;104.088;2022-07-10T01:20:16;31.50;58.50
49531;DHT22;38889;30.622;104.088;2022-07-10T01:22:43;31.50;58.30
49531;DHT22;38889;30.622;104.088;2022-07-10T01:25:11;31.50;58.10
49531;DHT22;38889;30.622;104.088;2022-07-10T01:27:38;31.50;57.90
49531;DHT22;38889;30.622;104.088;2022-07-10T01:30:05;31.50;57.90
49531;DHT22;38889;30.622;104.088;2022-07-10T01:32:42;31.50;57.50
49531;DHT22;38889;30.622;104.088;2022-07-10T01:35:09;31.60;57.70
49531;DHT22;38889;30.622;104.088;2022-07-10T01:37:37;31.60;57.50
49531;DHT22;38889;30.622;104.088;2022-07-10T01:40:05;31.60;57.20
49531;DHT22;38889;30.622;104.088;2022-07-10T01:42:50;31.60;57.60
49531;DHT22;38889;30.622;104.088;2022-07-10T01:45:21;31.60;57.60
49531;DHT22;38889;30.622;104.088;2022-07-10T01:47:48;31.70;58.10
49531;DHT22;38889;30.622;104.088;2022-07-10T01:50:15;31.70;57.30
49531;DHT22;38889;30.622;104.088;2022-07-10T01:52:43;31.70;57.30
49531;DHT22;38889;30.622;104.088;2022-07-10T01:55:10;31.70;56.90
49531;DHT22;38889;30.622;104.088;2022-07-10T01:57:37;31.70;56.70
49531;DHT22;38889;30.622;104.088;2022-07-10T02:00:05;31.80;59.00
49531;DHT22;38889;30.622;104.088;2022-07-10T02:02:34;31.80;58.00
49531;DHT22;38889;30.622;104.088;2022-07-10T02:05:01;31.80;58.20
49531;DHT22;38889;30.622;104.088;2022-07-10T02:07:28;31.50;53.60
49531;DHT22;38889;30.622;104.088;2022-07-10T02:10:14;31.20;51.00
49531;DHT22;38889;30.622;104.088;2022-07-10T02:12:41;30.90;49.80
49531;DHT22;38889;30.622;104.088;2022-07-10T02:15:08;30.60;49.30
49531;DHT22;38889;30.622;104.088;2022-07-10T02:17:36;30.40;48.80
49531;DHT22;38889;30.622;104.088;2022-07-10T02:20:03;30.30;48.10
49531;DHT22;38889;30.622;104.088;2022-07-10T02:22:30;30.10;47.60
49531;DHT22;38889;30.622;104.088;2022-07-10T02:24:57;30.00;47.40
49531;DHT22;38889;30.622;104.088;2022-07-10T02:27:25;29.80;46.90
49531;DHT22;38889;30.622;104.088;2022-07-10T02:29:57;29.70;46.50
49531;DHT22;38889;30.622;104.088;2022-07-10T02:32:24;29.70;47.00
49531;DHT22;38889;30.622;104.088;2022-07-10T02:34:52;29.70;47.90
49531;DHT22;38889;30.622;104.088;2022-07-10T02:37:19;29.60;48.50
49531;DHT22;38889;30.622;104.088;2022-07-10T02:39:46;29.50;48.20
49531;DHT22;38889;30.622;104.088;2022-07-10T02:42:31;29.50;48.50
49531;DHT22;38889;30.622;104.088;2022-07-10T02:44:58;29.50;48.90
49531;DHT22;38889;30.622;104.088;2022-07-10T02:47:25;29.50;48.80
49531;DHT22;38889;30.622;104.088;2022-07-10T02:49:52;29.40;48.70
49531;DHT22;38889;30.622;104.088;2022-07-10T02:52:20;29.40;49.50
49531;DHT22;38889;30.622;104.088;2022-07-10T02:54:47;29.30;49.20
49531;DHT22;38889;30.622;104.088;2022-07-10T02:57:14;29.30;48.70
49531;DHT22;38889;30.622;104.088;2022-07-10T02:59:41;29.20;48.60
49531;DHT22;38889;30.622;104.088;2022-07-10T03:02:09;29.20;49.00
49531;DHT22;38889;30.622;104.088;2022-07-10T03:04:36;29.10;48.70
49531;DHT22;38889;30.622;104.088;2022-07-10T03:07:04;29.10;48.70
49531;DHT22;38889;30.622;104.088;2022-07-10T03:09:31;29.00;48.40
49531;DHT22;38889;30.622;104.088;2022-07-10T03:11:58;29.00;48.60
49531;DHT22;38889;30.622;104.088;2022-07-10T03:14:26;29.00;49.00
49531;DHT22;38889;30.622;104.088;2022-07-10T03:16:54;29.00;49.10
49531;DHT22;38889;30.622;104.088;2022-07-10T03:19:21;28.90;49.30
49531;DHT22;38889;30.622;104.088;2022-07-10T03:21:48;28.90;49.30
49531;DHT22;38889;30.622;104.088;2022-07-10T03:24:15;28.90;49.30
49531;DHT22;38889;30.622;104.088;2022-07-10T03:26:43;28.80;49.10
49531;DHT22;38889;30.622;104.088;2022-07-10T03:29:11;28.80;49.00
49531;DHT22;38889;30.622;104.088;2022-07-10T03:31:38;28.80;48.70
49531;DHT22;38889;30.622;104.088;2022-07-10T03:34:05;28.70;48.60
49531;DHT22;38889;30.622;104.088;2022-07-10T03:39:18;28.70;49.60
49531;DHT22;38889;30.622;104.088;2022-07-10T03:44:31;28.70;50.40
49531;DHT22;38889;30.622;104.088;2022-07-10T03:46:58;28.60;50.90
49531;DHT22;38889;30.622;104.088;2022-07-10T03:49:30;28.60;51.20
49531;DHT22;38889;30.622;104.088;2022-07-10T03:52:01;28.50;51.20
49531;DHT22;38889;30.622;104.088;2022-07-10T03:54:30;28.50;50.90
49531;DHT22;38889;30.622;104.088;2022-07-10T03:56:58;28.50;50.60
49531;DHT22;38889;30.622;104.088;2022-07-10T04:02:29;28.60;50.50
49531;DHT22;38889;30.622;104.088;2022-07-10T04:04:56;28.60;50.10
49531;DHT22;38889;30.622;104.088;2022-07-10T04:10:09;28.60;50.20
49531;DHT22;38889;30.622;104.088;2022-07-10T04:12:37;28.60;49.60
49531;DHT22;38889;30.622;104.088;2022-07-10T04:15:23;28.60;49.20
49531;DHT22;38889;30.622;104.088;2022-07-10T04:17:51;28.60;49.30
49531;DHT22;38889;30.622;104.088;2022-07-10T04:20:19;28.60;49.10
49531;DHT22;38889;30.622;104.088;2022-07-10T04:22:48;28.60;48.90
49531;DHT22;38889;30.622;104.088;2022-07-10T04:25:15;28.60;48.80
49531;DHT22;38889;30.622;104.088;2022-07-10T04:27:43;28.50;48.70
49531;DHT22;38889;30.622;104.088;2022-07-10T04:30:10;28.50;48.90
49531;DHT22;38889;30.622;104.088;2022-07-10T04:32:38;28.50;48.80
49531;DHT22;38889;30.622;104.088;2022-07-10T04:35:05;28.50;48.80
49531;DHT22;38889;30.622;104.088;2022-07-10T04:37:33;28.50;49.00
49531;DHT22;38889;30.622;104.088;2022-07-10T04:40:02;28.50;49.20
49531;DHT22;38889;30.622;104.088;2022-07-10T04:42:29;28.50;49.20
49531;DHT22;38889;30.622;104.088;2022-07-10T04:44:57;28.50;47.80
49531;DHT22;38889;30.622;104.088;2022-07-10T04:47:24;28.50;48.70
49531;DHT22;38889;30.622;104.088;2022-07-10T04:49:52;28.50;48.40
49531;DHT22;38889;30.622;104.088;2022-07-10T04:52:37;28.50;48.00
49531;DHT22;38889;30.622;104.088;2022-07-10T04:55:22;28.40;48.40
49531;DHT22;38889;30.622;104.088;2022-07-10T04:57:50;28.50;48.50
49531;DHT22;38889;30.622;104.088;2022-07-10T05:00:17;28.50;49.00
49531;DHT22;38889;30.622;104.088;2022-07-10T05:02:44;28.50;49.30
49531;DHT22;38889;30.622;104.088;2022-07-10T05:05:11;28.50;49.90
49531;DHT22;38889;30.622;104.088;2022-07-10T05:07:39;28.50;49.70
49531;DHT22;38889;30.622;104.088;2022-07-10T05:10:06;28.40;49.70
49531;DHT22;38889;30.622;104.088;2022-07-10T05:12:34;28.50;50.10
49531;DHT22;38889;30.622;104.088;2022-07-10T05:17:47;28.50;49.70
49531;DHT22;38889;30.622;104.088;2022-07-10T05:20:15;28.50;50.60
49531;DHT22;38889;30.622;104.088;2022-07-10T05:25:29;28.50;50.00
49531;DHT22;38889;30.622;104.088;2022-07-10T05:27:57;28.50;50.00
49531;DHT22;38889;30.622;104.088;2022-07-10T05:30:24;28.50;49.90
49531;DHT22;38889;30.622;104.088;2022-07-10T05:32:52;28.50;50.10
49531;DHT22;38889;30.622;104.088;2022-07-10T05:35:24;28.50;50.70
49531;DHT22;38889;30.622;104.088;2022-07-10T05:37:57;28.50;50.50
49531;DHT22;38889;30.622;104.088;2022-07-10T05:40:54;28.50;50.70
49531;DHT22;38889;30.622;104.088;2022-07-10T05:43:25;28.50;51.00
49531;DHT22;38889;30.622;104.088;2022-07-10T05:46:05;28.50;51.20
49531;DHT22;38889;30.622;104.088;2022-07-10T05:48:42;28.50;50.40
49531;DHT22;38889;30.622;104.088;2022-07-10T05:51:31;28.40;50.20
49531;DHT22;38889;30.622;104.088;2022-07-10T05:53:59;28.40;50.50
49531;DHT22;38889;30.622;104.088;2022-07-10T05:56:26;28.30;51.30
49531;DHT22;38889;30.622;104.088;2022-07-10T06:01:57;28.50;52.10
49531;DHT22;38889;30.622;104.088;2022-07-10T06:04:24;28.50;52.60
49531;DHT22;38889;30.622;104.088;2022-07-10T06:06:52;28.50;52.50
49531;DHT22;38889;30.622;104.088;2022-07-10T06:09:19;28.40;52.50
49531;DHT22;38889;30.622;104.088;2022-07-10T06:11:47;28.50;52.60
49531;DHT22;38889;30.622;104.088;2022-07-10T06:14:16;28.50;52.60
49531;DHT22;38889;30.622;104.088;2022-07-10T06:16:43;28.50;52.20
49531;DHT22;38889;30.622;104.088;2022-07-10T06:19:11;28.50;52.00
49531;DHT22;38889;30.622;104.088;2022-07-10T06:21:57;28.50;51.40
49531;DHT22;38889;30.622;104.088;2022-07-10T06:24:42;28.50;51.40
49531;DHT22;38889;30.622;104.088;2022-07-10T06:27:10;29.00;51.30
49531;DHT22;38889;30.622;104.088;2022-07-10T06:29:37;28.00;51.60
49531;DHT22;38889;30.622;104.088;2022-07-10T06:32:05;28.50;52.40
49531;DHT22;38889;30.622;104.088;2022-07-10T06:34:38;28.40;51.90
49531;DHT22;38889;30.622;104.088;2022-07-10T06:37:06;28.50;52.00
49531;DHT22;38889;30.622;104.088;2022-07-10T06:39:51;28.40;52.60
49531;DHT22;38889;30.622;104.088;2022-07-10T06:42:19;28.40;51.60
49531;DHT22;38889;30.622;104.088;2022-07-10T06:44:46;28.50;51.80
49531;DHT22;38889;30.622;104.088;2022-07-10T06:47:15;28.50;51.70
49531;DHT22;38889;30.622;104.088;2022-07-10T06:50:05;28.40;51.90
49531;DHT22;38889;30.622;104.088;2022-07-10T06:52:33;28.40;51.60
49531;DHT22;38889;30.622;104.088;2022-07-10T06:55:02;28.40;51.80
49531;DHT22;38889;30.622;104.088;2022-07-10T06:57:30;28.50;51.70
49531;DHT22;38889;30.622;104.088;2022-07-10T06:59:57;28.50;52.30
49531;DHT22;38889;30.622;104.088;2022-07-10T07:02:24;28.50;51.90
49531;DHT22;38889;30.622;104.088;2022-07-10T07:04:52;28.50;51.30
49531;DHT22;38889;30.622;104.088;2022-07-10T07:07:22;28.40;50.40
49531;DHT22;38889;30.622;104.088;2022-07-10T07:09:50;28.50;51.20
49531;DHT22;38889;30.622;104.088;2022-07-10T07:12:36;28.50;51.20
49531;DHT22;38889;30.622;104.088;2022-07-10T07:15:04;28.40;49.90
49531;DHT22;38889;30.622;104.088;2022-07-10T07:17:38;27.40;49.80
49531;DHT22;38889;30.622;104.088;2022-07-10T07:20:25;28.40;50.10
49531;DHT22;38889;30.622;104.088;2022-07-10T07:23:09;28.40;50.10
49531;DHT22;38889;30.622;104.088;2022-07-10T07:25:40;28.30;49.30
49531;DHT22;38889;30.622;104.088;2022-07-10T07:28:16;28.30;49.10
49531;DHT22;38889;30.622;104.088;2022-07-10T07:30:46;28.30;49.00
49531;DHT22;38889;30.622;104.088;2022-07-10T07:33:14;28.20;49.30
49531;DHT22;38889;30.622;104.088;2022-07-10T07:35:42;28.30;50.60
49531;DHT22;38889;30.622;104.088;2022-07-10T07:38:09;28.40;51.70
49531;DHT22;38889;30.622;104.088;2022-07-10T07:40:37;28.50;52.10
49531;DHT22;38889;30.622;104.088;2022-07-10T07:43:05;28.60;52.30
49531;DHT22;38889;30.622;104.088;2022-07-10T07:45:32;28.70;52.20
49531;DHT22;38889;30.622;104.088;2022-07-10T07:48:00;28.70;52.10
49531;DHT22;38889;30.622;104.088;2022-07-10T07:50:33;28.80;52.00
49531;DHT22;38889;30.622;104.088;2022-07-10T07:53:01;28.90;51.80
49531;DHT22;38889;30.622;104.088;2022-07-10T07:55:30;29.00;51.40
49531;DHT22;38889;30.622;104.088;2022-07-10T07:57:58;29.00;51.00
49531;DHT22;38889;30.622;104.088;2022-07-10T08:00:27;29.10;50.70
49531;DHT22;38889;30.622;104.088;2022-07-10T08:02:56;29.10;50.20
49531;DHT22;38889;30.622;104.088;2022-07-10T08:05:42;29.20;50.10
49531;DHT22;38889;30.622;104.088;2022-07-10T08:08:11;29.30;49.90
49531;DHT22;38889;30.622;104.088;2022-07-10T08:10:38;29.30;49.90
49531;DHT22;38889;30.622;104.088;2022-07-10T08:13:05;29.40;50.00
49531;DHT22;38889;30.622;104.088;2022-07-10T08:15:33;29.40;49.90
49531;DHT22;38889;30.622;104.088;2022-07-10T08:18:01;29.40;49.60
49531;DHT22;38889;30.622;104.088;2022-07-10T08:20:31;29.40;49.20
49531;DHT22;38889;30.622;104.088;2022-07-10T08:22:58;29.50;49.00
49531;DHT22;38889;30.622;104.088;2022-07-10T08:25:29;29.50;48.60
49531;DHT22;38889;30.622;104.088;2022-07-10T08:28:15;29.60;47.70
49531;DHT22;38889;30.622;104.088;2022-07-10T08:30:42;29.60;48.10
49531;DHT22;38889;30.622;104.088;2022-07-10T08:33:29;29.60;48.20
49531;DHT22;38889;30.622;104.088;2022-07-10T08:35:57;29.70;47.70
49531;DHT22;38889;30.622;104.088;2022-07-10T08:38:26;29.70;48.00
49531;DHT22;38889;30.622;104.088;2022-07-10T08:40:55;29.70;48.10
49531;DHT22;38889;30.622;104.088;2022-07-10T08:43:26;29.80;48.30
49531;DHT22;38889;30.622;104.088;2022-07-10T08:48:40;29.80;48.30
49531;DHT22;38889;30.622;104.088;2022-07-10T08:51:10;29.80;48.30
49531;DHT22;38889;30.622;104.088;2022-07-10T08:53:43;29.90;48.30
49531;DHT22;38889;30.622;104.088;2022-07-10T08:56:12;29.90;48.40
49531;DHT22;38889;30.622;104.088;2022-07-10T08:58:39;29.90;48.30
49531;DHT22;38889;30.622;104.088;2022-07-10T09:01:07;30.00;48.10
49531;DHT22;38889;30.622;104.088;2022-07-10T09:03:35;30.00;47.90
49531;DHT22;38889;30.622;104.088;2022-07-10T09:09:09;30.00;47.90
49531;DHT22;38889;30.622;104.088;2022-07-10T09:11:40;30.00;48.20
49531;DHT22;38889;30.622;104.088;2022-07-10T09:14:11;30.10;48.60
49531;DHT22;38889;30.622;104.088;2022-07-10T09:16:40;30.20;49.00
49531;DHT22;38889;30.622;104.088;2022-07-10T09:21:46;30.30;49.90
49531;DHT22;38889;30.622;104.088;2022-07-10T09:24:14;30.30;50.30
49531;DHT22;38889;30.622;104.088;2022-07-10T09:27:05;30.30;49.40
49531;DHT22;38889;30.622;104.088;2022-07-10T09:29:52;30.40;49.70
49531;DHT22;38889;30.622;104.088;2022-07-10T09:32:24;30.40;50.20
49531;DHT22;38889;30.622;104.088;2022-07-10T09:34:54;30.40;50.20
49531;DHT22;38889;30.622;104.088;2022-07-10T09:37:41;30.50;50.30
49531;DHT22;38889;30.622;104.088;2022-07-10T09:40:10;30.50;50.50
49531;DHT22;38889;30.622;104.088;2022-07-10T09:42:39;30.60;51.10
49531;DHT22;38889;30.622;104.088;2022-07-10T09:45:14;30.60;51.20
49531;DHT22;38889;30.622;104.088;2022-07-10T09:47:45;30.70;51.20
49531;DHT22;38889;30.622;104.088;2022-07-10T09:50:26;30.70;51.90
49531;DHT22;38889;30.622;104.088;2022-07-10T09:55:25;30.80;52.10
49531;DHT22;38889;30.622;104.088;2022-07-10T09:58:01;30.80;51.80
49531;DHT22;38889;30.622;104.088;2022-07-10T10:00:46;30.80;51.60
49531;DHT22;38889;30.622;104.088;2022-07-10T10:03:32;30.90;51.50
49531;DHT22;38889;30.622;104.088;2022-07-10T10:06:10;30.90;51.00
49531;DHT22;38889;30.622;104.088;2022-07-10T10:11:33;31.00;51.00
49531;DHT22;38889;30.622;104.088;2022-07-10T10:14:20;31.00;50.80
49531;DHT22;38889;30.622;104.088;2022-07-10T10:16:55;31.00;50.90
49531;DHT22;38889;30.622;104.088;2022-07-10T10:19:26;31.00;50.90
49531;DHT22;38889;30.622;104.088;2022-07-10T10:22:15;31.00;50.90
49531;DHT22;38889;30.622;104.088;2022-07-10T10:27:48;31.00;49.90
49531;DHT22;38889;30.622;104.088;2022-07-10T10:30:35;31.00;49.90
49531;DHT22;38889;30.622;104.088;2022-07-10T10:33:51;31.00;49.90
49531;DHT22;38889;30.622;104.088;2022-07-10T10:35:52;31.00;49.60
49531;DHT22;38889;30.622;104.088;2022-07-10T10:38:19;31.00;49.30
49531;DHT22;38889;30.622;104.088;2022-07-10T10:40:46;31.00;49.80
49531;DHT22;38889;30.622;104.088;2022-07-10T10:43:23;31.00;50.30
49531;DHT22;38889;30.622;104.088;2022-07-10T10:45:51;31.00;50.50
49531;DHT22;38889;30.622;104.088;2022-07-10T10:48:19;31.10;50.80
49531;DHT22;38889;30.622;104.088;2022-07-10T10:51:04;31.10;51.20
49531;DHT22;38889;30.622;104.088;2022-07-10T10:53:32;31.10;51.40
49531;DHT22;38889;30.622;104.088;2022-07-10T10:58:41;31.20;51.70
49531;DHT22;38889;30.622;104.088;2022-07-10T11:06:45;31.30;52.30
49531;DHT22;38889;30.622;104.088;2022-07-10T11:09:31;31.30;52.40
49531;DHT22;38889;30.622;104.088;2022-07-10T11:14:48;31.40;52.70
49531;DHT22;38889;30.622;104.088;2022-07-10T11:20:02;31.50;52.80
49531;DHT22;38889;30.622;104.088;2022-07-10T11:25:42;31.50;53.10
49531;DHT22;38889;30.622;104.088;2022-07-10T11:28:24;31.60;53.00
49531;DHT22;38889;30.622;104.088;2022-07-10T11:30:54;31.60;53.00
49531;DHT22;38889;30.622;104.088;2022-07-10T11:33:47;31.60;53.10
49531;DHT22;38889;30.622;104.088;2022-07-10T11:41:42;31.70;53.20
49531;DHT22;38889;30.622;104.088;2022-07-10T11:46:59;31.70;53.30
49531;DHT22;38889;30.622;104.088;2022-07-10T11:49:27;31.80;52.80
49531;DHT22;38889;30.622;104.088;2022-07-10T11:51:55;31.80;53.50
49531;DHT22;38889;30.622;104.088;2022-07-10T11:54:27;31.80;53.40
49531;DHT22;38889;30.622;104.088;2022-07-10T11:56:55;31.80;54.10
49531;DHT22;38889;30.622;104.088;2022-07-10T11:59:27;31.90;53.50
49531;DHT22;38889;30.622;104.088;2022-07-10T12:01:55;31.80;53.40
49531;DHT22;38889;30.622;104.088;2022-07-10T12:04:30;31.90;53.50
49531;DHT22;38889;30.622;104.088;2022-07-10T12:06:58;31.90;53.40
49531;DHT22;38889;30.622;104.088;2022-07-10T12:09:25;31.90;53.40
49531;DHT22;38889;30.622;104.088;2022-07-10T12:12:01;31.90;53.30
49531;DHT22;38889;30.622;104.088;2022-07-10T12:14:29;32.00;53.30
49531;DHT22;38889;30.622;104.088;2022-07-10T12:16:57;32.00;53.20
49531;DHT22;38889;30.622;104.088;2022-07-10T12:19:29;32.00;53.30
49531;DHT22;38889;30.622;104.088;2022-07-10T12:22:00;32.00;53.30
49531;DHT22;38889;30.622;104.088;2022-07-10T12:24:28;32.00;53.30
49531;DHT22;38889;30.622;104.088;2022-07-10T12:26:55;32.00;53.10
49531;DHT22;38889;30.622;104.088;2022-07-10T12:29:26;32.10;53.20
49531;DHT22;38889;30.622;104.088;2022-07-10T12:31:58;32.00;53.10
49531;DHT22;38889;30.622;104.088;2022-07-10T12:34:38;32.10;53.20
49531;DHT22;38889;30.622;104.088;2022-07-10T12:37:14;32.10;53.10
49531;DHT22;38889;30.622;104.088;2022-07-10T12:39:50;32.10;53.20
49531;DHT22;38889;30.622;104.088;2022-07-10T12:42:29;32.10;53.30
49531;DHT22;38889;30.622;104.088;2022-07-10T12:45:13;32.20;53.90
49531;DHT22;38889;30.622;104.088;2022-07-10T12:47:48;32.20;54.30
49531;DHT22;38889;30.622;104.088;2022-07-10T12:50:23;32.20;54.50
49531;DHT22;38889;30.622;104.088;2022-07-10T12:53:08;32.20;54.60
49531;DHT22;38889;30.622;104.088;2022-07-10T12:55:37;32.20;54.60
49531;DHT22;38889;30.622;104.088;2022-07-10T13:00:57;32.20;54.80
49531;DHT22;38889;30.622;104.088;2022-07-10T13:03:26;32.30;55.30
49531;DHT22;38889;30.622;104.088;2022-07-10T13:05:56;32.30;55.60
49531;DHT22;38889;30.622;104.088;2022-07-10T13:08:24;32.20;55.90
49531;DHT22;38889;30.622;104.088;2022-07-10T13:11:09;32.30;56.50
49531;DHT22;38889;30.622;104.088;2022-07-10T13:13:37;32.30;56.10
49531;DHT22;38889;30.622;104.088;2022-07-10T13:16:05;32.30;56.80
49531;DHT22;38889;30.622;104.088;2022-07-10T13:18:33;32.40;56.80
49531;DHT22;38889;30.622;104.088;2022-07-10T13:21:00;32.40;56.70
49531;DHT22;38889;30.622;104.088;2022-07-10T13:23:29;32.40;56.70
49531;DHT22;38889;30.622;104.088;2022-07-10T13:25:58;32.40;56.70
49531;DHT22;38889;30.622;104.088;2022-07-10T13:28:25;32.40;56.70
49531;DHT22;38889;30.622;104.088;2022-07-10T13:30:55;32.40;56.70
49531;DHT22;38889;30.622;104.088;2022-07-10T13:33:23;32.40;56.60
49531;DHT22;38889;30.622;104.088;2022-07-10T13:35:51;32.40;56.70
49531;DHT22;38889;30.622;104.088;2022-07-10T13:41:04;32.40;56.70
49531;DHT22;38889;30.622;104.088;2022-07-10T13:43:32;32.40;56.60
49531;DHT22;38889;30.622;104.088;2022-07-10T13:46:00;32.40;56.50
49531;DHT22;38889;30.622;104.088;2022-07-10T13:48:29;32.40;56.50
49531;DHT22;38889;30.622;104.088;2022-07-10T13:50:57;32.40;56.50
49531;DHT22;38889;30.622;104.088;2022-07-10T13:53:24;32.40;56.60
49531;DHT22;38889;30.622;104.088;2022-07-10T13:55:56;32.40;56.70
49531;DHT22;38889;30.622;104.088;2022-07-10T13:58:24;32.40;56.70
49531;DHT22;38889;30.622;104.088;2022-07-10T14:00:51;32.40;56.70
49531;DHT22;38889;30.622;104.088;2022-07-10T14:03:19;32.40;56.90
49531;DHT22;38889;30.622;104.088;2022-07-10T14:05:46;32.40;57.10
49531;DHT22;38889;30.622;104.088;2022-07-10T14:08:13;32.40;57.50
49531;DHT22;38889;30.622;104.088;2022-07-10T14:10:41;32.40;57.90
49531;DHT22;38889;30.622;104.088;2022-07-10T14:13:08;32.40;58.20
49531;DHT22;38889;30.622;104.088;2022-07-10T14:15:36;32.40;58.00
49531;DHT22;38889;30.622;104.088;2022-07-10T14:21:11;32.40;58.10
49531;DHT22;38889;30.622;104.088;2022-07-10T14:23:41;32.40;58.10
49531;DHT22;38889;30.622;104.088;2022-07-10T14:26:11;32.40;58.30
49531;DHT22;38889;30.622;104.088;2022-07-10T14:28:39;32.40;58.30
49531;DHT22;38889;30.622;104.088;2022-07-10T14:31:07;32.40;57.70
49531;DHT22;38889;30.622;104.088;2022-07-10T14:33:35;32.40;58.30
49531;DHT22;38889;30.622;104.088;2022-07-10T14:36:03;32.40;58.30
49531;DHT22;38889;30.622;104.088;2022-07-10T14:38:31;32.40;58.60
49531;DHT22;38889;30.622;104.088;2022-07-10T14:43:45;32.50;58.60
49531;DHT22;38889;30.622;104.088;2022-07-10T14:46:12;32.50;58.80
49531;DHT22;38889;30.622;104.088;2022-07-10T14:48:40;32.50;58.80
49531;DHT22;38889;30.622;104.088;2022-07-10T14:51:08;32.50;59.40
49531;DHT22;38889;30.622;104.088;2022-07-10T14:53:35;32.50;59.20
49531;DHT22;38889;30.622;104.088;2022-07-10T14:56:04;32.50;59.20
49531;DHT22;38889;30.622;104.088;2022-07-10T14:58:32;32.40;59.20
49531;DHT22;38889;30.622;104.088;2022-07-10T15:01:00;32.40;59.10
49531;DHT22;38889;30.622;104.088;2022-07-10T15:03:29;32.50;59.20
49531;DHT22;38889;30.622;104.088;2022-07-10T15:06:04;32.40;59.00
49531;DHT22;38889;30.622;104.088;2022-07-10T15:08:32;32.40;58.90
49531;DHT22;38889;30.622;104.088;2022-07-10T15:11:00;32.40;58.80
49531;DHT22;38889;30.622;104.088;2022-07-10T15:13:29;32.40;58.40
49531;DHT22;38889;30.622;104.088;2022-07-10T15:15:56;32.40;58.10
49531;DHT22;38889;30.622;104.088;2022-07-10T15:18:24;32.40;58.30
49531;DHT22;38889;30.622;104.088;2022-07-10T15:21:09;32.40;58.00
49531;DHT22;38889;30.622;104.088;2022-07-10T15:23:38;32.40;57.70
49531;DHT22;38889;30.622;104.088;2022-07-10T15:26:05;32.30;55.90
49531;DHT22;38889;30.622;104.088;2022-07-10T15:28:42;32.40;56.60
49531;DHT22;38889;30.622;104.088;2022-07-10T15:31:10;32.30;56.60
49531;DHT22;38889;30.622;104.088;2022-07-10T15:33:41;32.30;57.30
49531;DHT22;38889;30.622;104.088;2022-07-10T15:36:12;32.30;57.20
49531;DHT22;38889;30.622;104.088;2022-07-10T15:38:57;32.40;57.70
49531;DHT22;38889;30.622;104.088;2022-07-10T15:41:25;32.30;58.20
49531;DHT22;38889;30.622;104.088;2022-07-10T15:43:53;32.40;58.50
49531;DHT22;38889;30.622;104.088;2022-07-10T15:46:20;32.40;58.40
49531;DHT22;38889;30.622;104.088;2022-07-10T15:48:47;32.40;58.40
49531;DHT22;38889;30.622;104.088;2022-07-10T15:51:15;32.40;58.40
49531;DHT22;38889;30.622;104.088;2022-07-10T15:53:42;32.40;58.40
49531;DHT22;38889;30.622;104.088;2022-07-10T15:56:10;32.40;58.50
49531;DHT22;38889;30.622;104.088;2022-07-10T15:58:37;32.40;58.60
49531;DHT22;38889;30.622;104.088;2022-07-10T16:01:05;32.40;58.60
49531;DHT22;38889;30.622;104.088;2022-07-10T16:03:32;32.40;58.50
49531;DHT22;38889;30.622;104.088;2022-07-10T16:08:47;32.40;59.30
49531;DHT22;38889;30.622;104.088;2022-07-10T16:11:15;32.40;59.70
49531;DHT22;38889;30.622;104.088;2022-07-10T16:13:44;32.40;59.80
49531;DHT22;38889;30.622;104.088;2022-07-10T16:16:12;32.40;59.90
49531;DHT22;38889;30.622;104.088;2022-07-10T16:18:39;32.30;59.90
49531;DHT22;38889;30.622;104.088;2022-07-10T16:21:07;32.30;59.80
49531;DHT22;38889;30.622;104.088;2022-07-10T16:23:52;32.20;60.10
49531;DHT22;38889;30.622;104.088;2022-07-10T16:26:20;32.20;60.70
49531;DHT22;38889;30.622;104.088;2022-07-10T16:28:47;32.20;61.10
49531;DHT22;38889;30.622;104.088;2022-07-10T16:31:17;32.20;60.70
49531;DHT22;38889;30.622;104.088;2022-07-10T16:33:46;32.10;60.60
49531;DHT22;38889;30.622;104.088;2022-07-10T16:36:17;32.10;60.60
49531;DHT22;38889;30.622;104.088;2022-07-10T16:39:06;32.00;60.20
49531;DHT22;38889;30.622;104.088;2022-07-10T16:41:33;32.10;60.80